sensor_id;sensor_type;location;lat;lon;timestamp;P1;durP1;ratioP1;P2;durP2;ratioP2
69594;SDS011;56800;52.142;5.364;2022-12-18T00:01:27;60.45;;;21.38;;
69594;SDS011;56800;52.142;5.364;2022-12-18T00:03:57;53.58;;;20.65;;
69594;SDS011;56800;52.142;5.364;2022-12-18T00:06:24;54.73;;;20.57;;
69594;SDS011;56800;52.142;5.364;2022-12-18T00:08:52;56.55;;;20.90;;
69594;SDS011;56800;52.142;5.364;2022-12-18T00:11:21;65.50;;;21.50;;
69594;SDS011;56800;52.142;5.364;2022-12-18T00:13:49;54.45;;;20.55;;
69594;SDS011;56800;52.142;5.364;2022-12-18T00:16:20;56.20;;;20.70;;
69594;SDS011;56800;52.142;5.364;2022-12-18T00:18:48;65.10;;;22.05;;
69594;SDS011;56800;52.142;5.364;2022-12-18T00:21:16;62.42;;;21.98;;
69594;SDS011;56800;52.142;5.364;2022-12-18T00:23:44;55.27;;;21.67;;
69594;SDS011;56800;52.142;5.364;2022-12-18T00:26:15;55.42;;;21.08;;
69594;SDS011;56800;52.142;5.364;2022-12-18T00:28:44;58.25;;;21.10;;
69594;SDS011;56800;52.142;5.364;2022-12-18T00:31:12;52.25;;;20.85;;
69594;SDS011;56800;52.142;5.364;2022-12-18T00:33:41;54.97;;;20.80;;
69594;SDS011;56800;52.142;5.364;2022-12-18T00:36:09;65.28;;;22.63;;
69594;SDS011;56800;52.142;5.364;2022-12-18T00:38:37;56.65;;;22.08;;
69594;SDS011;56800;52.142;5.364;2022-12-18T00:41:05;60.40;;;21.90;;
69594;SDS011;56800;52.142;5.364;2022-12-18T00:43:33;75.10;;;21.60;;
69594;SDS011;56800;52.142;5.364;2022-12-18T00:46:01;52.17;;;20.88;;
69594;SDS011;56800;52.142;5.364;2022-12-18T00:48:28;59.17;;;20.92;;
69594;SDS011;56800;52.142;5.364;2022-12-18T00:50:55;58.17;;;21.92;;
69594;SDS011;56800;52.142;5.364;2022-12-18T00:53:21;67.03;;;21.80;;
69594;SDS011;56800;52.142;5.364;2022-12-18T00:55:48;54.03;;;21.45;;
69594;SDS011;56800;52.142;5.364;2022-12-18T00:58:15;58.40;;;20.95;;
69594;SDS011;56800;52.142;5.364;2022-12-18T01:00:42;59.88;;;21.25;;
69594;SDS011;56800;52.142;5.364;2022-12-18T01:03:10;81.73;;;22.77;;
69594;SDS011;56800;52.142;5.364;2022-12-18T01:05:40;56.42;;;21.13;;
69594;SDS011;56800;52.142;5.364;2022-12-18T01:08:07;58.92;;;21.15;;
69594;SDS011;56800;52.142;5.364;2022-12-18T01:10:34;61.90;;;23.05;;
69594;SDS011;56800;52.142;5.364;2022-12-18T01:13:00;57.37;;;21.80;;
69594;SDS011;56800;52.142;5.364;2022-12-18T01:15:27;68.93;;;23.25;;
69594;SDS011;56800;52.142;5.364;2022-12-18T01:17:53;68.63;;;24.70;;
69594;SDS011;56800;52.142;5.364;2022-12-18T01:20:20;66.80;;;23.67;;
69594;SDS011;56800;52.142;5.364;2022-12-18T01:22:47;59.83;;;22.03;;
69594;SDS011;56800;52.142;5.364;2022-12-18T01:25:13;61.65;;;21.52;;
69594;SDS011;56800;52.142;5.364;2022-12-18T01:27:40;55.92;;;21.77;;
69594;SDS011;56800;52.142;5.364;2022-12-18T01:30:07;61.70;;;21.53;;
69594;SDS011;56800;52.142;5.364;2022-12-18T01:32:34;58.97;;;21.40;;
69594;SDS011;56800;52.142;5.364;2022-12-18T01:35:01;54.88;;;20.38;;
69594;SDS011;56800;52.142;5.364;2022-12-18T01:37:27;65.07;;;21.58;;
69594;SDS011;56800;52.142;5.364;2022-12-18T01:39:54;55.25;;;21.10;;
69594;SDS011;56800;52.142;5.364;2022-12-18T01:42:21;60.00;;;22.17;;
69594;SDS011;56800;52.142;5.364;2022-12-18T01:50:21;55.45;;;21.42;;
69594;SDS011;56800;52.142;5.364;2022-12-18T01:52:55;62.83;;;21.92;;
69594;SDS011;56800;52.142;5.364;2022-12-18T01:55:26;62.47;;;22.40;;
69594;SDS011;56800;52.142;5.364;2022-12-18T01:57:56;55.85;;;21.70;;
69594;SDS011;56800;52.142;5.364;2022-12-18T02:00:25;58.75;;;21.95;;
69594;SDS011;56800;52.142;5.364;2022-12-18T02:02:53;59.70;;;21.20;;
69594;SDS011;56800;52.142;5.364;2022-12-18T02:05:40;58.07;;;22.33;;
69594;SDS011;56800;52.142;5.364;2022-12-18T02:08:24;60.78;;;21.45;;
69594;SDS011;56800;52.142;5.364;2022-12-18T02:19:25;55.40;;;21.73;;
69594;SDS011;56800;52.142;5.364;2022-12-18T02:22:26;57.67;;;21.05;;
69594;SDS011;56800;52.142;5.364;2022-12-18T02:27:55;49.47;;;19.42;;
69594;SDS011;56800;52.142;5.364;2022-12-18T02:30:26;56.22;;;20.67;;
69594;SDS011;56800;52.142;5.364;2022-12-18T02:32:57;56.03;;;21.40;;
69594;SDS011;56800;52.142;5.364;2022-12-18T02:35:27;51.42;;;20.88;;
69594;SDS011;56800;52.142;5.364;2022-12-18T02:37:56;56.95;;;20.92;;
69594;SDS011;56800;52.142;5.364;2022-12-18T02:40:24;57.95;;;21.48;;
69594;SDS011;56800;52.142;5.364;2022-12-18T02:42:53;49.80;;;18.97;;
69594;SDS011;56800;52.142;5.364;2022-12-18T02:45:20;54.78;;;21.50;;
69594;SDS011;56800;52.142;5.364;2022-12-18T02:47:47;54.78;;;20.35;;
69594;SDS011;56800;52.142;5.364;2022-12-18T02:52:52;49.10;;;20.25;;
69594;SDS011;56800;52.142;5.364;2022-12-18T02:58:14;49.45;;;19.23;;
69594;SDS011;56800;52.142;5.364;2022-12-18T03:00:48;46.10;;;17.43;;
69594;SDS011;56800;52.142;5.364;2022-12-18T03:03:23;54.65;;;20.48;;
69594;SDS011;56800;52.142;5.364;2022-12-18T03:08:41;51.47;;;18.33;;
69594;SDS011;56800;52.142;5.364;2022-12-18T03:11:11;48.03;;;18.30;;
69594;SDS011;56800;52.142;5.364;2022-12-18T03:13:41;48.35;;;18.15;;
69594;SDS011;56800;52.142;5.364;2022-12-18T03:16:18;50.38;;;18.70;;
69594;SDS011;56800;52.142;5.364;2022-12-18T03:18:54;46.42;;;18.67;;
69594;SDS011;56800;52.142;5.364;2022-12-18T03:21:28;51.67;;;18.80;;
69594;SDS011;56800;52.142;5.364;2022-12-18T03:23:59;50.30;;;18.30;;
69594;SDS011;56800;52.142;5.364;2022-12-18T03:26:29;44.63;;;18.07;;
69594;SDS011;56800;52.142;5.364;2022-12-18T03:29:01;48.10;;;18.42;;
69594;SDS011;56800;52.142;5.364;2022-12-18T03:31:39;50.88;;;18.98;;
69594;SDS011;56800;52.142;5.364;2022-12-18T03:34:19;52.27;;;18.47;;
69594;SDS011;56800;52.142;5.364;2022-12-18T03:36:51;48.45;;;18.25;;
69594;SDS011;56800;52.142;5.364;2022-12-18T03:39:18;50.50;;;17.92;;
69594;SDS011;56800;52.142;5.364;2022-12-18T03:44:27;47.72;;;17.65;;
69594;SDS011;56800;52.142;5.364;2022-12-18T03:47:12;45.08;;;18.00;;
69594;SDS011;56800;52.142;5.364;2022-12-18T03:52:21;55.67;;;17.70;;
69594;SDS011;56800;52.142;5.364;2022-12-18T03:54:58;48.88;;;18.20;;
69594;SDS011;56800;52.142;5.364;2022-12-18T03:57:28;53.80;;;18.80;;
69594;SDS011;56800;52.142;5.364;2022-12-18T03:59:58;46.70;;;17.87;;
69594;SDS011;56800;52.142;5.364;2022-12-18T04:02:29;51.38;;;18.55;;
69594;SDS011;56800;52.142;5.364;2022-12-18T04:04:58;44.47;;;17.50;;
69594;SDS011;56800;52.142;5.364;2022-12-18T04:07:27;45.60;;;18.38;;
69594;SDS011;56800;52.142;5.364;2022-12-18T04:09:55;45.88;;;18.10;;
69594;SDS011;56800;52.142;5.364;2022-12-18T04:12:24;38.58;;;17.13;;
69594;SDS011;56800;52.142;5.364;2022-12-18T04:14:52;45.15;;;17.33;;
69594;SDS011;56800;52.142;5.364;2022-12-18T04:17:19;44.00;;;17.53;;
69594;SDS011;56800;52.142;5.364;2022-12-18T04:19:45;44.42;;;17.00;;
69594;SDS011;56800;52.142;5.364;2022-12-18T04:22:12;37.47;;;15.98;;
69594;SDS011;56800;52.142;5.364;2022-12-18T04:24:39;44.83;;;17.70;;
69594;SDS011;56800;52.142;5.364;2022-12-18T04:27:06;47.33;;;16.55;;
69594;SDS011;56800;52.142;5.364;2022-12-18T04:29:33;50.30;;;18.20;;
69594;SDS011;56800;52.142;5.364;2022-12-18T04:31:59;40.78;;;15.75;;
69594;SDS011;56800;52.142;5.364;2022-12-18T04:34:26;46.08;;;16.45;;
69594;SDS011;56800;52.142;5.364;2022-12-18T04:36:53;46.90;;;16.73;;
69594;SDS011;56800;52.142;5.364;2022-12-18T04:39:19;39.78;;;16.35;;
69594;SDS011;56800;52.142;5.364;2022-12-18T04:41:46;36.60;;;14.83;;
69594;SDS011;56800;52.142;5.364;2022-12-18T04:44:13;40.80;;;16.20;;
69594;SDS011;56800;52.142;5.364;2022-12-18T04:46:40;40.03;;;16.20;;
69594;SDS011;56800;52.142;5.364;2022-12-18T04:49:06;34.37;;;14.77;;
69594;SDS011;56800;52.142;5.364;2022-12-18T04:51:33;37.83;;;14.80;;
69594;SDS011;56800;52.142;5.364;2022-12-18T04:54:00;35.75;;;15.77;;
69594;SDS011;56800;52.142;5.364;2022-12-18T04:56:26;42.45;;;15.88;;
69594;SDS011;56800;52.142;5.364;2022-12-18T04:58:53;38.95;;;15.80;;
69594;SDS011;56800;52.142;5.364;2022-12-18T05:01:19;36.08;;;15.38;;
69594;SDS011;56800;52.142;5.364;2022-12-18T05:03:47;38.28;;;14.98;;
69594;SDS011;56800;52.142;5.364;2022-12-18T05:06:14;35.97;;;14.97;;
69594;SDS011;56800;52.142;5.364;2022-12-18T05:08:40;32.60;;;14.50;;
69594;SDS011;56800;52.142;5.364;2022-12-18T05:11:08;36.20;;;14.48;;
69594;SDS011;56800;52.142;5.364;2022-12-18T05:13:37;36.20;;;14.40;;
69594;SDS011;56800;52.142;5.364;2022-12-18T05:16:05;34.25;;;13.93;;
69594;SDS011;56800;52.142;5.364;2022-12-18T05:18:32;34.42;;;14.10;;
69594;SDS011;56800;52.142;5.364;2022-12-18T05:21:00;34.13;;;14.02;;
69594;SDS011;56800;52.142;5.364;2022-12-18T05:23:26;32.70;;;14.25;;
69594;SDS011;56800;52.142;5.364;2022-12-18T05:25:57;34.35;;;13.20;;
69594;SDS011;56800;52.142;5.364;2022-12-18T05:28:29;31.92;;;13.85;;
69594;SDS011;56800;52.142;5.364;2022-12-18T05:30:57;33.40;;;14.03;;
69594;SDS011;56800;52.142;5.364;2022-12-18T05:33:29;30.55;;;13.77;;
69594;SDS011;56800;52.142;5.364;2022-12-18T05:35:58;31.83;;;13.82;;
69594;SDS011;56800;52.142;5.364;2022-12-18T05:38:29;28.83;;;13.33;;
69594;SDS011;56800;52.142;5.364;2022-12-18T05:40:57;33.75;;;13.32;;
69594;SDS011;56800;52.142;5.364;2022-12-18T05:43:24;32.05;;;13.90;;
69594;SDS011;56800;52.142;5.364;2022-12-18T05:45:52;32.50;;;11.98;;
69594;SDS011;56800;52.142;5.364;2022-12-18T05:48:20;28.45;;;12.68;;
69594;SDS011;56800;52.142;5.364;2022-12-18T05:50:48;32.22;;;13.23;;
69594;SDS011;56800;52.142;5.364;2022-12-18T05:53:16;31.83;;;13.27;;
69594;SDS011;56800;52.142;5.364;2022-12-18T05:55:45;33.67;;;13.00;;
69594;SDS011;56800;52.142;5.364;2022-12-18T05:58:13;32.47;;;12.93;;
69594;SDS011;56800;52.142;5.364;2022-12-18T06:00:41;32.45;;;13.30;;
69594;SDS011;56800;52.142;5.364;2022-12-18T06:03:12;31.43;;;12.77;;
69594;SDS011;56800;52.142;5.364;2022-12-18T06:05:40;26.42;;;12.35;;
69594;SDS011;56800;52.142;5.364;2022-12-18T06:08:08;31.85;;;12.88;;
69594;SDS011;56800;52.142;5.364;2022-12-18T06:10:36;32.17;;;12.32;;
69594;SDS011;56800;52.142;5.364;2022-12-18T06:13:04;29.25;;;12.02;;
69594;SDS011;56800;52.142;5.364;2022-12-18T06:15:31;30.35;;;11.98;;
69594;SDS011;56800;52.142;5.364;2022-12-18T06:17:57;27.70;;;11.48;;
69594;SDS011;56800;52.142;5.364;2022-12-18T06:20:26;24.93;;;11.70;;
69594;SDS011;56800;52.142;5.364;2022-12-18T06:22:58;28.83;;;11.68;;
69594;SDS011;56800;52.142;5.364;2022-12-18T06:25:25;24.17;;;10.95;;
69594;SDS011;56800;52.142;5.364;2022-12-18T06:27:52;25.70;;;10.57;;
69594;SDS011;56800;52.142;5.364;2022-12-18T06:30:18;27.17;;;11.73;;
69594;SDS011;56800;52.142;5.364;2022-12-18T06:32:45;26.30;;;10.90;;
69594;SDS011;56800;52.142;5.364;2022-12-18T06:35:21;24.98;;;10.88;;
69594;SDS011;56800;52.142;5.364;2022-12-18T06:37:48;25.23;;;10.95;;
69594;SDS011;56800;52.142;5.364;2022-12-18T06:40:15;26.80;;;11.23;;
69594;SDS011;56800;52.142;5.364;2022-12-18T06:42:42;29.35;;;11.88;;
69594;SDS011;56800;52.142;5.364;2022-12-18T06:45:09;25.13;;;11.00;;
69594;SDS011;56800;52.142;5.364;2022-12-18T06:47:36;24.08;;;11.40;;
69594;SDS011;56800;52.142;5.364;2022-12-18T06:50:02;25.35;;;11.70;;
69594;SDS011;56800;52.142;5.364;2022-12-18T06:52:31;27.57;;;11.83;;
69594;SDS011;56800;52.142;5.364;2022-12-18T06:54:59;22.55;;;9.77;;
69594;SDS011;56800;52.142;5.364;2022-12-18T06:57:26;23.92;;;11.15;;
69594;SDS011;56800;52.142;5.364;2022-12-18T06:59:53;25.85;;;11.18;;
69594;SDS011;56800;52.142;5.364;2022-12-18T07:02:19;23.58;;;11.15;;
69594;SDS011;56800;52.142;5.364;2022-12-18T07:04:49;25.60;;;10.82;;
69594;SDS011;56800;52.142;5.364;2022-12-18T07:07:16;24.88;;;10.82;;
69594;SDS011;56800;52.142;5.364;2022-12-18T07:09:43;22.37;;;9.93;;
69594;SDS011;56800;52.142;5.364;2022-12-18T07:12:09;26.20;;;10.20;;
69594;SDS011;56800;52.142;5.364;2022-12-18T07:14:36;25.52;;;10.40;;
69594;SDS011;56800;52.142;5.364;2022-12-18T07:17:03;22.80;;;10.67;;
69594;SDS011;56800;52.142;5.364;2022-12-18T07:19:31;24.08;;;10.63;;
69594;SDS011;56800;52.142;5.364;2022-12-18T07:21:58;30.00;;;10.40;;
69594;SDS011;56800;52.142;5.364;2022-12-18T07:24:24;26.63;;;10.70;;
69594;SDS011;56800;52.142;5.364;2022-12-18T07:26:51;21.73;;;9.88;;
69594;SDS011;56800;52.142;5.364;2022-12-18T07:29:18;21.25;;;10.02;;
69594;SDS011;56800;52.142;5.364;2022-12-18T07:31:44;20.90;;;10.48;;
69594;SDS011;56800;52.142;5.364;2022-12-18T07:34:11;23.63;;;10.47;;
69594;SDS011;56800;52.142;5.364;2022-12-18T07:36:39;21.95;;;10.32;;
69594;SDS011;56800;52.142;5.364;2022-12-18T07:39:06;20.20;;;10.07;;
69594;SDS011;56800;52.142;5.364;2022-12-18T07:41:33;23.17;;;10.30;;
69594;SDS011;56800;52.142;5.364;2022-12-18T07:44:00;22.90;;;10.45;;
69594;SDS011;56800;52.142;5.364;2022-12-18T07:46:26;26.42;;;10.25;;
69594;SDS011;56800;52.142;5.364;2022-12-18T07:48:53;21.25;;;9.93;;
69594;SDS011;56800;52.142;5.364;2022-12-18T07:51:21;19.08;;;9.32;;
69594;SDS011;56800;52.142;5.364;2022-12-18T07:54:23;24.77;;;10.38;;
69594;SDS011;56800;52.142;5.364;2022-12-18T07:56:51;18.90;;;9.18;;
69594;SDS011;56800;52.142;5.364;2022-12-18T07:59:18;22.40;;;9.80;;
69594;SDS011;56800;52.142;5.364;2022-12-18T08:01:45;27.30;;;10.73;;
69594;SDS011;56800;52.142;5.364;2022-12-18T08:04:12;20.30;;;10.25;;
69594;SDS011;56800;52.142;5.364;2022-12-18T08:06:40;23.97;;;10.57;;
69594;SDS011;56800;52.142;5.364;2022-12-18T08:09:45;22.23;;;10.35;;
69594;SDS011;56800;52.142;5.364;2022-12-18T08:12:21;19.77;;;9.77;;
69594;SDS011;56800;52.142;5.364;2022-12-18T08:15:58;23.05;;;10.40;;
69594;SDS011;56800;52.142;5.364;2022-12-18T08:18:31;21.08;;;10.55;;
69594;SDS011;56800;52.142;5.364;2022-12-18T08:21:25;21.10;;;10.55;;
69594;SDS011;56800;52.142;5.364;2022-12-18T08:24:06;20.75;;;10.38;;
69594;SDS011;56800;52.142;5.364;2022-12-18T08:26:54;19.37;;;9.80;;
69594;SDS011;56800;52.142;5.364;2022-12-18T08:29:55;23.38;;;10.07;;
69594;SDS011;56800;52.142;5.364;2022-12-18T08:32:25;21.15;;;9.98;;
69594;SDS011;56800;52.142;5.364;2022-12-18T08:35:12;21.87;;;10.70;;
69594;SDS011;56800;52.142;5.364;2022-12-18T08:38:42;18.92;;;9.73;;
69594;SDS011;56800;52.142;5.364;2022-12-18T08:42:26;20.73;;;9.80;;
69594;SDS011;56800;52.142;5.364;2022-12-18T08:45:57;21.63;;;11.35;;
69594;SDS011;56800;52.142;5.364;2022-12-18T08:52:48;23.70;;;11.63;;
69594;SDS011;56800;52.142;5.364;2022-12-18T08:56:15;25.73;;;10.60;;
69594;SDS011;56800;52.142;5.364;2022-12-18T08:59:56;22.13;;;9.97;;
69594;SDS011;56800;52.142;5.364;2022-12-18T09:03:33;18.58;;;9.63;;
69594;SDS011;56800;52.142;5.364;2022-12-18T09:06:20;23.13;;;9.88;;
69594;SDS011;56800;52.142;5.364;2022-12-18T09:09:38;23.97;;;10.33;;
69594;SDS011;56800;52.142;5.364;2022-12-18T09:12:59;19.67;;;10.15;;
69594;SDS011;56800;52.142;5.364;2022-12-18T09:16:35;21.00;;;10.70;;
69594;SDS011;56800;52.142;5.364;2022-12-18T09:19:26;20.08;;;9.80;;
69594;SDS011;56800;52.142;5.364;2022-12-18T09:22:32;22.17;;;10.95;;
69594;SDS011;56800;52.142;5.364;2022-12-18T09:25:58;19.63;;;10.52;;
69594;SDS011;56800;52.142;5.364;2022-12-18T09:36:42;22.60;;;10.02;;
69594;SDS011;56800;52.142;5.364;2022-12-18T09:39:47;20.73;;;10.48;;
69594;SDS011;56800;52.142;5.364;2022-12-18T09:43:04;17.27;;;9.43;;
69594;SDS011;56800;52.142;5.364;2022-12-18T09:51:11;20.27;;;10.18;;
69594;SDS011;56800;52.142;5.364;2022-12-18T09:54:44;22.73;;;10.60;;
69594;SDS011;56800;52.142;5.364;2022-12-18T10:01:25;20.48;;;10.05;;
69594;SDS011;56800;52.142;5.364;2022-12-18T10:04:17;22.38;;;10.50;;
69594;SDS011;56800;52.142;5.364;2022-12-18T10:07:03;19.63;;;10.37;;
69594;SDS011;56800;52.142;5.364;2022-12-18T10:10:10;20.33;;;10.23;;
69594;SDS011;56800;52.142;5.364;2022-12-18T10:13:34;20.65;;;10.23;;
69594;SDS011;56800;52.142;5.364;2022-12-18T10:17:00;24.70;;;11.03;;
69594;SDS011;56800;52.142;5.364;2022-12-18T10:20:40;20.52;;;10.32;;
69594;SDS011;56800;52.142;5.364;2022-12-18T10:28:26;16.52;;;8.98;;
69594;SDS011;56800;52.142;5.364;2022-12-18T10:31:54;22.50;;;9.95;;
69594;SDS011;56800;52.142;5.364;2022-12-18T10:35:30;18.92;;;9.30;;
69594;SDS011;56800;52.142;5.364;2022-12-18T10:39:41;17.90;;;9.43;;
69594;SDS011;56800;52.142;5.364;2022-12-18T10:43:27;19.50;;;8.67;;
69594;SDS011;56800;52.142;5.364;2022-12-18T10:46:34;17.98;;;8.90;;
69594;SDS011;56800;52.142;5.364;2022-12-18T10:49:50;17.42;;;9.25;;
69594;SDS011;56800;52.142;5.364;2022-12-18T10:53:28;15.50;;;8.82;;
69594;SDS011;56800;52.142;5.364;2022-12-18T10:56:16;16.50;;;8.95;;
69594;SDS011;56800;52.142;5.364;2022-12-18T10:59:49;19.13;;;9.10;;
69594;SDS011;56800;52.142;5.364;2022-12-18T11:06:13;25.93;;;12.80;;
69594;SDS011;56800;52.142;5.364;2022-12-18T11:09:20;22.33;;;11.73;;
69594;SDS011;56800;52.142;5.364;2022-12-18T11:12:54;19.02;;;9.88;;
69594;SDS011;56800;52.142;5.364;2022-12-18T11:16:20;19.05;;;9.45;;
69594;SDS011;56800;52.142;5.364;2022-12-18T11:19:36;17.88;;;9.88;;
69594;SDS011;56800;52.142;5.364;2022-12-18T11:23:10;17.27;;;8.65;;
69594;SDS011;56800;52.142;5.364;2022-12-18T11:26:39;21.83;;;10.10;;
69594;SDS011;56800;52.142;5.364;2022-12-18T11:30:20;17.47;;;8.27;;
69594;SDS011;56800;52.142;5.364;2022-12-18T11:41:57;17.80;;;8.60;;
69594;SDS011;56800;52.142;5.364;2022-12-18T11:45:27;15.67;;;8.63;;
69594;SDS011;56800;52.142;5.364;2022-12-18T11:48:34;17.60;;;8.00;;
69594;SDS011;56800;52.142;5.364;2022-12-18T11:52:04;17.23;;;8.50;;
69594;SDS011;56800;52.142;5.364;2022-12-18T11:55:00;19.50;;;8.68;;
69594;SDS011;56800;52.142;5.364;2022-12-18T12:05:46;17.92;;;8.05;;
69594;SDS011;56800;52.142;5.364;2022-12-18T12:13:57;16.27;;;8.48;;
69594;SDS011;56800;52.142;5.364;2022-12-18T12:17:08;16.60;;;8.63;;
69594;SDS011;56800;52.142;5.364;2022-12-18T12:29:59;15.57;;;8.07;;
69594;SDS011;56800;52.142;5.364;2022-12-18T12:39:22;15.82;;;8.13;;
69594;SDS011;56800;52.142;5.364;2022-12-18T12:42:04;15.73;;;8.55;;
69594;SDS011;56800;52.142;5.364;2022-12-18T12:45:26;17.20;;;7.88;;
69594;SDS011;56800;52.142;5.364;2022-12-18T12:51:34;14.98;;;7.78;;
69594;SDS011;56800;52.142;5.364;2022-12-18T12:54:40;15.02;;;8.23;;
69594;SDS011;56800;52.142;5.364;2022-12-18T12:57:42;15.85;;;8.75;;
69594;SDS011;56800;52.142;5.364;2022-12-18T13:00:28;17.80;;;9.35;;
69594;SDS011;56800;52.142;5.364;2022-12-18T13:09:30;19.15;;;9.02;;
69594;SDS011;56800;52.142;5.364;2022-12-18T13:16:07;17.03;;;8.57;;
69594;SDS011;56800;52.142;5.364;2022-12-18T13:18:54;20.17;;;8.98;;
69594;SDS011;56800;52.142;5.364;2022-12-18T13:21:31;16.55;;;9.35;;
69594;SDS011;56800;52.142;5.364;2022-12-18T13:24:22;17.23;;;8.52;;
69594;SDS011;56800;52.142;5.364;2022-12-18T13:27:21;19.77;;;9.88;;
69594;SDS011;56800;52.142;5.364;2022-12-18T13:34:36;17.67;;;9.55;;
69594;SDS011;56800;52.142;5.364;2022-12-18T13:40:05;17.63;;;8.48;;
69594;SDS011;56800;52.142;5.364;2022-12-18T13:43:26;19.27;;;8.60;;
69594;SDS011;56800;52.142;5.364;2022-12-18T13:52:15;19.75;;;9.00;;
69594;SDS011;56800;52.142;5.364;2022-12-18T13:54:47;19.92;;;9.38;;
69594;SDS011;56800;52.142;5.364;2022-12-18T13:57:32;16.80;;;9.10;;
69594;SDS011;56800;52.142;5.364;2022-12-18T14:02:49;17.90;;;8.95;;
69594;SDS011;56800;52.142;5.364;2022-12-18T14:05:30;18.30;;;9.00;;
69594;SDS011;56800;52.142;5.364;2022-12-18T14:08:00;17.93;;;9.00;;
69594;SDS011;56800;52.142;5.364;2022-12-18T14:10:30;19.48;;;9.38;;
69594;SDS011;56800;52.142;5.364;2022-12-18T14:15:46;19.42;;;9.65;;
69594;SDS011;56800;52.142;5.364;2022-12-18T14:20:52;19.20;;;9.47;;
69594;SDS011;56800;52.142;5.364;2022-12-18T14:23:25;19.75;;;10.30;;
69594;SDS011;56800;52.142;5.364;2022-12-18T14:25:52;17.75;;;9.48;;
69594;SDS011;56800;52.142;5.364;2022-12-18T14:28:18;18.67;;;9.27;;
69594;SDS011;56800;52.142;5.364;2022-12-18T14:30:47;17.10;;;9.03;;
69594;SDS011;56800;52.142;5.364;2022-12-18T14:33:19;15.57;;;8.30;;
69594;SDS011;56800;52.142;5.364;2022-12-18T14:35:57;19.75;;;9.63;;
69594;SDS011;56800;52.142;5.364;2022-12-18T14:41:06;20.63;;;8.77;;
69594;SDS011;56800;52.142;5.364;2022-12-18T14:43:38;17.07;;;9.47;;
69594;SDS011;56800;52.142;5.364;2022-12-18T14:49:23;18.63;;;9.30;;
69594;SDS011;56800;52.142;5.364;2022-12-18T14:51:56;18.23;;;8.75;;
69594;SDS011;56800;52.142;5.364;2022-12-18T14:54:27;19.08;;;8.63;;
69594;SDS011;56800;52.142;5.364;2022-12-18T14:57:00;19.17;;;9.03;;
69594;SDS011;56800;52.142;5.364;2022-12-18T14:59:29;19.55;;;9.90;;
69594;SDS011;56800;52.142;5.364;2022-12-18T15:01:58;21.42;;;10.15;;
69594;SDS011;56800;52.142;5.364;2022-12-18T15:04:32;18.80;;;8.82;;
69594;SDS011;56800;52.142;5.364;2022-12-18T15:07:02;16.13;;;8.60;;
69594;SDS011;56800;52.142;5.364;2022-12-18T15:09:39;20.27;;;8.77;;
69594;SDS011;56800;52.142;5.364;2022-12-18T15:17:59;17.05;;;9.52;;
69594;SDS011;56800;52.142;5.364;2022-12-18T15:20:27;18.48;;;9.50;;
69594;SDS011;56800;52.142;5.364;2022-12-18T15:22:57;18.47;;;10.10;;
69594;SDS011;56800;52.142;5.364;2022-12-18T15:25:26;16.02;;;9.20;;
69594;SDS011;56800;52.142;5.364;2022-12-18T15:27:58;21.90;;;9.90;;
69594;SDS011;56800;52.142;5.364;2022-12-18T15:30:25;20.60;;;10.15;;
69594;SDS011;56800;52.142;5.364;2022-12-18T15:32:52;18.23;;;9.63;;
69594;SDS011;56800;52.142;5.364;2022-12-18T15:35:42;20.03;;;10.13;;
69594;SDS011;56800;52.142;5.364;2022-12-18T15:38:12;21.23;;;10.15;;
69594;SDS011;56800;52.142;5.364;2022-12-18T15:40:39;21.10;;;10.00;;
69594;SDS011;56800;52.142;5.364;2022-12-18T15:43:07;20.70;;;10.98;;
69594;SDS011;56800;52.142;5.364;2022-12-18T15:45:53;22.48;;;11.20;;
69594;SDS011;56800;52.142;5.364;2022-12-18T15:48:21;21.77;;;10.77;;
69594;SDS011;56800;52.142;5.364;2022-12-18T15:50:52;22.02;;;10.38;;
69594;SDS011;56800;52.142;5.364;2022-12-18T15:53:23;20.33;;;9.93;;
69594;SDS011;56800;52.142;5.364;2022-12-18T15:55:51;23.85;;;10.93;;
69594;SDS011;56800;52.142;5.364;2022-12-18T15:58:37;21.03;;;9.97;;
69594;SDS011;56800;52.142;5.364;2022-12-18T16:01:03;21.00;;;10.48;;
69594;SDS011;56800;52.142;5.364;2022-12-18T16:03:30;22.77;;;10.88;;
69594;SDS011;56800;52.142;5.364;2022-12-18T16:05:57;20.23;;;9.82;;
69594;SDS011;56800;52.142;5.364;2022-12-18T16:08:28;20.80;;;10.45;;
69594;SDS011;56800;52.142;5.364;2022-12-18T16:10:56;21.53;;;10.60;;
69594;SDS011;56800;52.142;5.364;2022-12-18T16:13:23;17.77;;;8.98;;
69594;SDS011;56800;52.142;5.364;2022-12-18T16:15:50;22.67;;;10.55;;
69594;SDS011;56800;52.142;5.364;2022-12-18T16:18:17;22.45;;;11.38;;
69594;SDS011;56800;52.142;5.364;2022-12-18T16:20:44;22.90;;;11.45;;
69594;SDS011;56800;52.142;5.364;2022-12-18T16:23:10;22.90;;;11.60;;
69594;SDS011;56800;52.142;5.364;2022-12-18T16:25:37;22.23;;;10.70;;
69594;SDS011;56800;52.142;5.364;2022-12-18T16:28:04;19.92;;;10.35;;
69594;SDS011;56800;52.142;5.364;2022-12-18T16:30:30;23.25;;;11.45;;
69594;SDS011;56800;52.142;5.364;2022-12-18T16:33:03;25.08;;;11.93;;
69594;SDS011;56800;52.142;5.364;2022-12-18T16:35:32;23.90;;;11.85;;
69594;SDS011;56800;52.142;5.364;2022-12-18T16:37:59;25.75;;;10.57;;
69594;SDS011;56800;52.142;5.364;2022-12-18T16:40:26;23.20;;;11.40;;
69594;SDS011;56800;52.142;5.364;2022-12-18T16:42:52;23.13;;;10.88;;
69594;SDS011;56800;52.142;5.364;2022-12-18T16:45:19;24.17;;;11.23;;
69594;SDS011;56800;52.142;5.364;2022-12-18T16:47:46;23.25;;;11.05;;
69594;SDS011;56800;52.142;5.364;2022-12-18T16:50:12;23.70;;;10.77;;
69594;SDS011;56800;52.142;5.364;2022-12-18T16:52:39;22.17;;;11.80;;
69594;SDS011;56800;52.142;5.364;2022-12-18T16:55:06;21.77;;;11.87;;
69594;SDS011;56800;52.142;5.364;2022-12-18T16:57:34;26.98;;;11.82;;
69594;SDS011;56800;52.142;5.364;2022-12-18T17:00:01;27.52;;;12.55;;
69594;SDS011;56800;52.142;5.364;2022-12-18T17:02:31;20.42;;;10.45;;
69594;SDS011;56800;52.142;5.364;2022-12-18T17:04:58;20.95;;;11.23;;
69594;SDS011;56800;52.142;5.364;2022-12-18T17:07:26;24.23;;;12.20;;
69594;SDS011;56800;52.142;5.364;2022-12-18T17:09:53;23.15;;;12.50;;
69594;SDS011;56800;52.142;5.364;2022-12-18T17:12:20;21.67;;;11.45;;
69594;SDS011;56800;52.142;5.364;2022-12-18T17:14:47;22.30;;;11.60;;
69594;SDS011;56800;52.142;5.364;2022-12-18T17:17:14;22.85;;;11.63;;
69594;SDS011;56800;52.142;5.364;2022-12-18T17:19:49;26.13;;;11.30;;
69594;SDS011;56800;52.142;5.364;2022-12-18T17:22:17;22.85;;;11.45;;
69594;SDS011;56800;52.142;5.364;2022-12-18T17:24:45;23.23;;;11.63;;
69594;SDS011;56800;52.142;5.364;2022-12-18T17:27:12;20.42;;;10.65;;
69594;SDS011;56800;52.142;5.364;2022-12-18T17:29:38;25.10;;;12.32;;
69594;SDS011;56800;52.142;5.364;2022-12-18T17:32:13;26.87;;;11.87;;
69594;SDS011;56800;52.142;5.364;2022-12-18T17:34:40;27.80;;;12.52;;
69594;SDS011;56800;52.142;5.364;2022-12-18T17:37:06;24.30;;;12.13;;
69594;SDS011;56800;52.142;5.364;2022-12-18T17:39:33;27.95;;;13.27;;
69594;SDS011;56800;52.142;5.364;2022-12-18T17:42:00;25.43;;;13.30;;
69594;SDS011;56800;52.142;5.364;2022-12-18T17:44:27;24.48;;;11.60;;
69594;SDS011;56800;52.142;5.364;2022-12-18T17:46:53;23.55;;;11.73;;
69594;SDS011;56800;52.142;5.364;2022-12-18T17:49:20;21.65;;;10.48;;
69594;SDS011;56800;52.142;5.364;2022-12-18T17:51:47;25.70;;;11.73;;
69594;SDS011;56800;52.142;5.364;2022-12-18T17:54:14;26.40;;;12.57;;